Pagina principale
METAR-TAF:

METAR-TAF

Aeroporti :

Aeroporto di N'Djamena-Hassan Djamous

N'Djamena, Ciad

latitudine: 12-08N, longitudine: 015-02E, altezza: 295 m

Osservazione

Il bollettino è stato emesso 1 ora e 1 minuti fa, alle 12:00 UTC
Vento 7 kt da nord-ovest, variando fra nord-ovest e est/nord-est
Temperature 32°C
Umidità 7%
Pressione 1014 hPa
Visibilità: 8000 m

METAR: FTTJ 281200Z 32007KT 320V060 8000 NSC 32/M08 Q1014 NOSIG

Ora: 14:01 (13:01 UTC)

Previsione

Il bollettino è stato emesso 2 ore e 1 minuti fa, alle 11:00 UTC
Previsione valida dal 28 alle 12 UTC al 29 alle 18 UTC
Vento 10 kt da nord/nord-est
Visibilità: 6000 m
Temporaneamente
dal 28 alle 15 UTC al 28 alle 21 UTC
Visibilità: 4000 m
polvere diffusa
Temporaneamente
dal 29 alle 00 UTC al 29 alle 06 UTC
Visibilità: 2000 m

TAF: FTTJ 281100Z 2812/2918 02010KT 6000 NSC TEMPO 2815/2821 4000 DU TEMPO 2900/2906 2000

Osservazioni e previsioni meteorologiche di più di 4000 aeroporti (messaggi METAR e TAF).

Le stazioni disponibili sono rappresentate dai dischi gialli e rossi sulla carta.

Puntare il mouse per vedere il nome della stazione.

Clicca sopra per visualizzare le osservazioni e previsioni meteorologiche.

Per cambiare la mappa : fare clic sui pulsanti verdi con una croce nera per ingrandire, il pulsante verde con un trattino per diminuire, o sulla freccia verde per le mappe adiacenti.


METAR-TAF: